sensor_id;sensor_type;location;lat;lon;timestamp;P1;durP1;ratioP1;P2;durP2;ratioP2
69754;SDS011;57023;52.218;5.158;2022-12-13T00:01:28;33.22;;;14.43;;
69754;SDS011;57023;52.218;5.158;2022-12-13T00:03:55;32.92;;;14.38;;
69754;SDS011;57023;52.218;5.158;2022-12-13T00:06:21;35.08;;;14.45;;
69754;SDS011;57023;52.218;5.158;2022-12-13T00:08:48;32.33;;;14.32;;
69754;SDS011;57023;52.218;5.158;2022-12-13T00:11:13;31.88;;;14.98;;
69754;SDS011;57023;52.218;5.158;2022-12-13T00:13:40;34.53;;;15.05;;
69754;SDS011;57023;52.218;5.158;2022-12-13T00:16:06;32.42;;;14.27;;
69754;SDS011;57023;52.218;5.158;2022-12-13T00:18:34;32.70;;;14.80;;
69754;SDS011;57023;52.218;5.158;2022-12-13T00:21:03;32.70;;;14.77;;
69754;SDS011;57023;52.218;5.158;2022-12-13T00:23:32;31.17;;;14.68;;
69754;SDS011;57023;52.218;5.158;2022-12-13T00:26:02;36.72;;;15.88;;
69754;SDS011;57023;52.218;5.158;2022-12-13T00:28:28;31.70;;;15.07;;
69754;SDS011;57023;52.218;5.158;2022-12-13T00:31:00;32.50;;;15.32;;
69754;SDS011;57023;52.218;5.158;2022-12-13T00:33:26;32.97;;;15.45;;
69754;SDS011;57023;52.218;5.158;2022-12-13T00:35:52;35.00;;;15.32;;
69754;SDS011;57023;52.218;5.158;2022-12-13T00:38:17;32.08;;;14.90;;
69754;SDS011;57023;52.218;5.158;2022-12-13T00:40:43;35.97;;;15.70;;
69754;SDS011;57023;52.218;5.158;2022-12-13T00:43:08;32.67;;;15.13;;
69754;SDS011;57023;52.218;5.158;2022-12-13T00:45:33;33.63;;;14.85;;
69754;SDS011;57023;52.218;5.158;2022-12-13T00:47:59;37.65;;;15.98;;
69754;SDS011;57023;52.218;5.158;2022-12-13T00:50:24;36.15;;;16.38;;
69754;SDS011;57023;52.218;5.158;2022-12-13T00:52:50;33.58;;;15.70;;
69754;SDS011;57023;52.218;5.158;2022-12-13T00:55:15;35.53;;;15.85;;
69754;SDS011;57023;52.218;5.158;2022-12-13T00:57:40;36.63;;;15.70;;
69754;SDS011;57023;52.218;5.158;2022-12-13T01:00:06;35.80;;;16.20;;
69754;SDS011;57023;52.218;5.158;2022-12-13T01:02:32;33.83;;;15.55;;
69754;SDS011;57023;52.218;5.158;2022-12-13T01:04:57;44.13;;;15.57;;
69754;SDS011;57023;52.218;5.158;2022-12-13T01:07:23;35.72;;;15.95;;
69754;SDS011;57023;52.218;5.158;2022-12-13T01:09:48;36.00;;;16.75;;
69754;SDS011;57023;52.218;5.158;2022-12-13T01:12:14;35.90;;;16.17;;
69754;SDS011;57023;52.218;5.158;2022-12-13T01:14:39;32.95;;;14.68;;
69754;SDS011;57023;52.218;5.158;2022-12-13T01:17:05;36.80;;;16.10;;
69754;SDS011;57023;52.218;5.158;2022-12-13T01:19:31;34.90;;;16.77;;
69754;SDS011;57023;52.218;5.158;2022-12-13T01:21:57;33.85;;;16.10;;
69754;SDS011;57023;52.218;5.158;2022-12-13T01:24:23;35.72;;;16.17;;
69754;SDS011;57023;52.218;5.158;2022-12-13T01:26:51;35.85;;;15.45;;
69754;SDS011;57023;52.218;5.158;2022-12-13T01:29:17;34.08;;;15.23;;
69754;SDS011;57023;52.218;5.158;2022-12-13T01:31:43;36.03;;;15.43;;
69754;SDS011;57023;52.218;5.158;2022-12-13T01:34:09;31.88;;;15.00;;
69754;SDS011;57023;52.218;5.158;2022-12-13T01:36:36;45.63;;;17.23;;
69754;SDS011;57023;52.218;5.158;2022-12-13T01:39:02;37.75;;;16.42;;
69754;SDS011;57023;52.218;5.158;2022-12-13T01:41:28;35.13;;;15.40;;
69754;SDS011;57023;52.218;5.158;2022-12-13T01:43:57;37.53;;;16.58;;
69754;SDS011;57023;52.218;5.158;2022-12-13T01:46:27;36.45;;;15.43;;
69754;SDS011;57023;52.218;5.158;2022-12-13T01:51:40;34.72;;;15.18;;
69754;SDS011;57023;52.218;5.158;2022-12-13T01:54:10;34.20;;;15.10;;
69754;SDS011;57023;52.218;5.158;2022-12-13T01:56:42;35.10;;;15.45;;
69754;SDS011;57023;52.218;5.158;2022-12-13T01:59:09;35.67;;;15.93;;
69754;SDS011;57023;52.218;5.158;2022-12-13T02:01:35;32.83;;;15.30;;
69754;SDS011;57023;52.218;5.158;2022-12-13T02:04:01;34.15;;;15.07;;
69754;SDS011;57023;52.218;5.158;2022-12-13T02:06:29;35.42;;;16.33;;
69754;SDS011;57023;52.218;5.158;2022-12-13T02:09:06;34.53;;;15.90;;
69754;SDS011;57023;52.218;5.158;2022-12-13T02:11:33;30.92;;;14.85;;
69754;SDS011;57023;52.218;5.158;2022-12-13T02:14:00;32.80;;;14.85;;
69754;SDS011;57023;52.218;5.158;2022-12-13T02:19:31;37.05;;;16.02;;
69754;SDS011;57023;52.218;5.158;2022-12-13T02:30:28;33.30;;;15.05;;
69754;SDS011;57023;52.218;5.158;2022-12-13T02:39:40;33.30;;;14.45;;
69754;SDS011;57023;52.218;5.158;2022-12-13T02:41:53;36.78;;;15.40;;
69754;SDS011;57023;52.218;5.158;2022-12-13T02:44:24;36.70;;;15.80;;
69754;SDS011;57023;52.218;5.158;2022-12-13T02:46:52;30.85;;;15.10;;
69754;SDS011;57023;52.218;5.158;2022-12-13T02:49:20;35.20;;;14.70;;
69754;SDS011;57023;52.218;5.158;2022-12-13T02:51:47;33.38;;;14.43;;
69754;SDS011;57023;52.218;5.158;2022-12-13T02:54:14;36.20;;;15.38;;
69754;SDS011;57023;52.218;5.158;2022-12-13T02:56:39;33.15;;;15.07;;
69754;SDS011;57023;52.218;5.158;2022-12-13T02:59:07;37.25;;;15.90;;
69754;SDS011;57023;52.218;5.158;2022-12-13T03:10:36;34.67;;;14.90;;
69754;SDS011;57023;52.218;5.158;2022-12-13T03:13:09;34.13;;;15.63;;
69754;SDS011;57023;52.218;5.158;2022-12-13T03:16:08;33.30;;;15.02;;
69754;SDS011;57023;52.218;5.158;2022-12-13T03:18:54;37.92;;;15.73;;
69754;SDS011;57023;52.218;5.158;2022-12-13T03:21:22;34.65;;;14.70;;
69754;SDS011;57023;52.218;5.158;2022-12-13T03:23:47;36.35;;;15.48;;
69754;SDS011;57023;52.218;5.158;2022-12-13T03:26:14;38.97;;;15.77;;
69754;SDS011;57023;52.218;5.158;2022-12-13T03:28:49;33.03;;;15.77;;
69754;SDS011;57023;52.218;5.158;2022-12-13T03:31:15;34.15;;;15.68;;
69754;SDS011;57023;52.218;5.158;2022-12-13T03:33:41;37.22;;;15.77;;
69754;SDS011;57023;52.218;5.158;2022-12-13T03:36:06;36.45;;;15.85;;
69754;SDS011;57023;52.218;5.158;2022-12-13T03:38:32;40.10;;;16.52;;
69754;SDS011;57023;52.218;5.158;2022-12-13T03:40:59;37.22;;;15.23;;
69754;SDS011;57023;52.218;5.158;2022-12-13T03:43:27;38.97;;;16.58;;
69754;SDS011;57023;52.218;5.158;2022-12-13T03:45:52;38.75;;;16.85;;
69754;SDS011;57023;52.218;5.158;2022-12-13T03:48:18;42.92;;;18.08;;
69754;SDS011;57023;52.218;5.158;2022-12-13T03:50:44;38.92;;;17.77;;
69754;SDS011;57023;52.218;5.158;2022-12-13T03:53:09;42.53;;;18.60;;
69754;SDS011;57023;52.218;5.158;2022-12-13T03:55:35;41.85;;;19.52;;
69754;SDS011;57023;52.218;5.158;2022-12-13T03:58:00;44.15;;;19.85;;
69754;SDS011;57023;52.218;5.158;2022-12-13T04:00:25;44.33;;;19.40;;
69754;SDS011;57023;52.218;5.158;2022-12-13T04:02:51;41.65;;;18.73;;
69754;SDS011;57023;52.218;5.158;2022-12-13T04:05:16;42.10;;;19.02;;
69754;SDS011;57023;52.218;5.158;2022-12-13T04:07:42;43.20;;;18.02;;
69754;SDS011;57023;52.218;5.158;2022-12-13T04:10:07;43.38;;;19.25;;
69754;SDS011;57023;52.218;5.158;2022-12-13T04:12:33;42.95;;;18.80;;
69754;SDS011;57023;52.218;5.158;2022-12-13T04:15:16;44.40;;;18.67;;
69754;SDS011;57023;52.218;5.158;2022-12-13T04:17:42;44.65;;;18.83;;
69754;SDS011;57023;52.218;5.158;2022-12-13T04:20:07;40.78;;;19.20;;
69754;SDS011;57023;52.218;5.158;2022-12-13T04:22:33;43.75;;;19.80;;
69754;SDS011;57023;52.218;5.158;2022-12-13T04:24:58;39.47;;;19.30;;
69754;SDS011;57023;52.218;5.158;2022-12-13T04:27:25;44.45;;;20.92;;
69754;SDS011;57023;52.218;5.158;2022-12-13T04:29:51;43.22;;;18.73;;
69754;SDS011;57023;52.218;5.158;2022-12-13T04:32:16;40.70;;;18.23;;
69754;SDS011;57023;52.218;5.158;2022-12-13T04:34:41;43.75;;;19.10;;
69754;SDS011;57023;52.218;5.158;2022-12-13T04:37:07;44.58;;;19.45;;
69754;SDS011;57023;52.218;5.158;2022-12-13T04:39:32;41.50;;;19.55;;
69754;SDS011;57023;52.218;5.158;2022-12-13T04:41:58;44.72;;;19.42;;
69754;SDS011;57023;52.218;5.158;2022-12-13T04:44:23;45.30;;;19.27;;
69754;SDS011;57023;52.218;5.158;2022-12-13T04:46:49;40.05;;;19.08;;
69754;SDS011;57023;52.218;5.158;2022-12-13T04:49:14;40.20;;;18.35;;
69754;SDS011;57023;52.218;5.158;2022-12-13T04:51:39;39.33;;;17.92;;
69754;SDS011;57023;52.218;5.158;2022-12-13T04:54:05;37.63;;;18.35;;
69754;SDS011;57023;52.218;5.158;2022-12-13T04:56:31;36.15;;;17.10;;
69754;SDS011;57023;52.218;5.158;2022-12-13T04:58:57;39.17;;;18.23;;
69754;SDS011;57023;52.218;5.158;2022-12-13T05:01:22;38.22;;;17.77;;
69754;SDS011;57023;52.218;5.158;2022-12-13T05:03:47;37.08;;;17.80;;
69754;SDS011;57023;52.218;5.158;2022-12-13T05:06:13;39.53;;;17.90;;
69754;SDS011;57023;52.218;5.158;2022-12-13T05:08:39;39.05;;;18.00;;
69754;SDS011;57023;52.218;5.158;2022-12-13T05:11:05;43.97;;;18.45;;
69754;SDS011;57023;52.218;5.158;2022-12-13T05:13:31;43.78;;;18.13;;
69754;SDS011;57023;52.218;5.158;2022-12-13T05:15:57;38.47;;;17.17;;
69754;SDS011;57023;52.218;5.158;2022-12-13T05:18:24;35.17;;;16.27;;
69754;SDS011;57023;52.218;5.158;2022-12-13T05:20:50;38.55;;;17.48;;
69754;SDS011;57023;52.218;5.158;2022-12-13T05:23:16;41.45;;;17.45;;
69754;SDS011;57023;52.218;5.158;2022-12-13T05:25:42;37.17;;;16.90;;
69754;SDS011;57023;52.218;5.158;2022-12-13T05:28:07;35.67;;;17.23;;
69754;SDS011;57023;52.218;5.158;2022-12-13T05:30:33;38.75;;;16.50;;
69754;SDS011;57023;52.218;5.158;2022-12-13T05:32:58;37.90;;;16.80;;
69754;SDS011;57023;52.218;5.158;2022-12-13T05:35:24;36.20;;;16.77;;
69754;SDS011;57023;52.218;5.158;2022-12-13T05:37:50;38.50;;;16.85;;
69754;SDS011;57023;52.218;5.158;2022-12-13T05:40:15;38.83;;;17.05;;
69754;SDS011;57023;52.218;5.158;2022-12-13T05:42:41;39.97;;;16.60;;
69754;SDS011;57023;52.218;5.158;2022-12-13T05:45:07;36.53;;;17.42;;
69754;SDS011;57023;52.218;5.158;2022-12-13T05:47:32;33.85;;;16.17;;
69754;SDS011;57023;52.218;5.158;2022-12-13T05:49:58;39.13;;;17.63;;
69754;SDS011;57023;52.218;5.158;2022-12-13T05:52:23;40.78;;;16.55;;
69754;SDS011;57023;52.218;5.158;2022-12-13T05:54:52;37.92;;;17.73;;
69754;SDS011;57023;52.218;5.158;2022-12-13T05:57:19;38.13;;;17.35;;
69754;SDS011;57023;52.218;5.158;2022-12-13T05:59:44;43.53;;;17.30;;
69754;SDS011;57023;52.218;5.158;2022-12-13T06:02:09;39.47;;;17.13;;
69754;SDS011;57023;52.218;5.158;2022-12-13T06:04:35;35.17;;;16.00;;
69754;SDS011;57023;52.218;5.158;2022-12-13T06:07:00;32.72;;;15.35;;
69754;SDS011;57023;52.218;5.158;2022-12-13T06:09:26;37.97;;;16.27;;
69754;SDS011;57023;52.218;5.158;2022-12-13T06:11:51;36.97;;;16.30;;
69754;SDS011;57023;52.218;5.158;2022-12-13T06:14:16;41.72;;;17.42;;
69754;SDS011;57023;52.218;5.158;2022-12-13T06:16:42;38.17;;;16.38;;
69754;SDS011;57023;52.218;5.158;2022-12-13T06:19:07;35.67;;;17.08;;
69754;SDS011;57023;52.218;5.158;2022-12-13T06:21:33;35.20;;;16.15;;
69754;SDS011;57023;52.218;5.158;2022-12-13T06:23:58;40.08;;;17.20;;
69754;SDS011;57023;52.218;5.158;2022-12-13T06:26:24;36.88;;;17.50;;
69754;SDS011;57023;52.218;5.158;2022-12-13T06:28:49;40.50;;;16.80;;
69754;SDS011;57023;52.218;5.158;2022-12-13T06:31:15;38.08;;;16.63;;
69754;SDS011;57023;52.218;5.158;2022-12-13T06:33:40;42.45;;;18.33;;
69754;SDS011;57023;52.218;5.158;2022-12-13T06:36:11;37.75;;;17.38;;
69754;SDS011;57023;52.218;5.158;2022-12-13T06:38:37;42.25;;;18.40;;
69754;SDS011;57023;52.218;5.158;2022-12-13T06:41:05;42.80;;;17.75;;
69754;SDS011;57023;52.218;5.158;2022-12-13T06:43:37;40.90;;;17.95;;
69754;SDS011;57023;52.218;5.158;2022-12-13T06:46:03;40.15;;;16.30;;
69754;SDS011;57023;52.218;5.158;2022-12-13T06:48:29;42.45;;;17.98;;
69754;SDS011;57023;52.218;5.158;2022-12-13T06:50:57;35.38;;;16.83;;
69754;SDS011;57023;52.218;5.158;2022-12-13T06:53:23;43.70;;;18.25;;
69754;SDS011;57023;52.218;5.158;2022-12-13T06:55:49;43.00;;;17.45;;
69754;SDS011;57023;52.218;5.158;2022-12-13T06:58:14;41.15;;;16.88;;
69754;SDS011;57023;52.218;5.158;2022-12-13T07:00:41;36.58;;;15.20;;
69754;SDS011;57023;52.218;5.158;2022-12-13T07:03:07;38.83;;;16.98;;
69754;SDS011;57023;52.218;5.158;2022-12-13T07:05:36;43.15;;;17.40;;
69754;SDS011;57023;52.218;5.158;2022-12-13T07:08:02;38.58;;;17.83;;
69754;SDS011;57023;52.218;5.158;2022-12-13T07:10:27;40.60;;;17.17;;
69754;SDS011;57023;52.218;5.158;2022-12-13T07:12:52;39.25;;;17.23;;
69754;SDS011;57023;52.218;5.158;2022-12-13T07:15:18;33.72;;;15.70;;
69754;SDS011;57023;52.218;5.158;2022-12-13T07:17:43;40.53;;;17.20;;
69754;SDS011;57023;52.218;5.158;2022-12-13T07:20:08;42.10;;;17.33;;
69754;SDS011;57023;52.218;5.158;2022-12-13T07:22:35;39.40;;;16.25;;
69754;SDS011;57023;52.218;5.158;2022-12-13T07:25:02;41.72;;;16.85;;
69754;SDS011;57023;52.218;5.158;2022-12-13T07:27:28;39.42;;;17.60;;
69754;SDS011;57023;52.218;5.158;2022-12-13T07:29:54;37.33;;;15.95;;
69754;SDS011;57023;52.218;5.158;2022-12-13T07:32:19;39.70;;;16.00;;
69754;SDS011;57023;52.218;5.158;2022-12-13T07:34:44;36.80;;;15.57;;
69754;SDS011;57023;52.218;5.158;2022-12-13T07:37:10;39.85;;;17.08;;
69754;SDS011;57023;52.218;5.158;2022-12-13T07:39:35;40.60;;;17.30;;
69754;SDS011;57023;52.218;5.158;2022-12-13T07:42:01;37.03;;;17.33;;
69754;SDS011;57023;52.218;5.158;2022-12-13T07:44:26;42.55;;;18.17;;
69754;SDS011;57023;52.218;5.158;2022-12-13T07:46:51;45.83;;;18.15;;
69754;SDS011;57023;52.218;5.158;2022-12-13T07:49:17;44.75;;;18.23;;
69754;SDS011;57023;52.218;5.158;2022-12-13T07:51:42;43.13;;;17.48;;
69754;SDS011;57023;52.218;5.158;2022-12-13T07:54:07;39.78;;;17.52;;
69754;SDS011;57023;52.218;5.158;2022-12-13T07:56:36;39.42;;;18.05;;
69754;SDS011;57023;52.218;5.158;2022-12-13T07:59:01;48.10;;;19.67;;
69754;SDS011;57023;52.218;5.158;2022-12-13T08:01:27;40.72;;;18.05;;
69754;SDS011;57023;52.218;5.158;2022-12-13T08:03:53;43.00;;;18.48;;
69754;SDS011;57023;52.218;5.158;2022-12-13T08:06:18;44.47;;;17.98;;
69754;SDS011;57023;52.218;5.158;2022-12-13T08:08:44;43.92;;;18.55;;
69754;SDS011;57023;52.218;5.158;2022-12-13T08:11:10;46.90;;;19.92;;
69754;SDS011;57023;52.218;5.158;2022-12-13T08:13:37;45.38;;;18.65;;
69754;SDS011;57023;52.218;5.158;2022-12-13T08:16:03;46.22;;;19.70;;
69754;SDS011;57023;52.218;5.158;2022-12-13T08:18:30;46.88;;;19.33;;
69754;SDS011;57023;52.218;5.158;2022-12-13T08:21:00;41.33;;;18.90;;
69754;SDS011;57023;52.218;5.158;2022-12-13T08:23:26;44.08;;;18.30;;
69754;SDS011;57023;52.218;5.158;2022-12-13T08:25:52;50.20;;;18.65;;
69754;SDS011;57023;52.218;5.158;2022-12-13T08:28:18;42.28;;;18.20;;
69754;SDS011;57023;52.218;5.158;2022-12-13T08:30:46;42.92;;;19.17;;
69754;SDS011;57023;52.218;5.158;2022-12-13T08:33:11;43.92;;;18.52;;
69754;SDS011;57023;52.218;5.158;2022-12-13T08:35:36;44.50;;;18.52;;
69754;SDS011;57023;52.218;5.158;2022-12-13T08:38:02;41.17;;;18.88;;
69754;SDS011;57023;52.218;5.158;2022-12-13T08:40:27;43.53;;;19.90;;
69754;SDS011;57023;52.218;5.158;2022-12-13T08:42:56;47.08;;;19.90;;
69754;SDS011;57023;52.218;5.158;2022-12-13T08:45:21;48.40;;;20.42;;
69754;SDS011;57023;52.218;5.158;2022-12-13T08:47:51;44.28;;;19.50;;
69754;SDS011;57023;52.218;5.158;2022-12-13T08:50:16;47.40;;;20.75;;
69754;SDS011;57023;52.218;5.158;2022-12-13T08:52:42;48.85;;;21.98;;
69754;SDS011;57023;52.218;5.158;2022-12-13T08:55:12;50.22;;;21.98;;
69754;SDS011;57023;52.218;5.158;2022-12-13T08:57:38;48.05;;;23.02;;
69754;SDS011;57023;52.218;5.158;2022-12-13T09:00:05;49.95;;;22.40;;
69754;SDS011;57023;52.218;5.158;2022-12-13T09:02:32;40.65;;;19.98;;
69754;SDS011;57023;52.218;5.158;2022-12-13T09:04:58;41.38;;;18.83;;
69754;SDS011;57023;52.218;5.158;2022-12-13T09:07:24;37.47;;;18.17;;
69754;SDS011;57023;52.218;5.158;2022-12-13T09:12:16;37.45;;;18.00;;
69754;SDS011;57023;52.218;5.158;2022-12-13T09:14:41;38.70;;;18.95;;
69754;SDS011;57023;52.218;5.158;2022-12-13T09:17:07;35.60;;;18.40;;
69754;SDS011;57023;52.218;5.158;2022-12-13T09:19:32;42.67;;;19.25;;
69754;SDS011;57023;52.218;5.158;2022-12-13T09:21:57;38.97;;;18.58;;
69754;SDS011;57023;52.218;5.158;2022-12-13T09:24:23;39.40;;;19.30;;
69754;SDS011;57023;52.218;5.158;2022-12-13T09:26:48;40.42;;;19.55;;
69754;SDS011;57023;52.218;5.158;2022-12-13T09:29:13;40.90;;;20.10;;
69754;SDS011;57023;52.218;5.158;2022-12-13T09:31:40;43.40;;;20.30;;
69754;SDS011;57023;52.218;5.158;2022-12-13T09:34:06;40.38;;;19.95;;
69754;SDS011;57023;52.218;5.158;2022-12-13T09:36:32;41.03;;;20.10;;
69754;SDS011;57023;52.218;5.158;2022-12-13T09:38:58;39.38;;;19.00;;
69754;SDS011;57023;52.218;5.158;2022-12-13T09:41:26;41.63;;;19.80;;
69754;SDS011;57023;52.218;5.158;2022-12-13T09:43:55;39.15;;;19.13;;
69754;SDS011;57023;52.218;5.158;2022-12-13T09:46:28;40.40;;;18.95;;
69754;SDS011;57023;52.218;5.158;2022-12-13T09:48:55;38.40;;;18.55;;
69754;SDS011;57023;52.218;5.158;2022-12-13T09:51:21;38.10;;;17.90;;
69754;SDS011;57023;52.218;5.158;2022-12-13T09:53:49;40.95;;;18.98;;
69754;SDS011;57023;52.218;5.158;2022-12-13T09:56:15;42.10;;;19.10;;
69754;SDS011;57023;52.218;5.158;2022-12-13T09:58:42;39.70;;;19.38;;
69754;SDS011;57023;52.218;5.158;2022-12-13T10:01:12;39.42;;;18.90;;
69754;SDS011;57023;52.218;5.158;2022-12-13T10:03:38;39.30;;;19.83;;
69754;SDS011;57023;52.218;5.158;2022-12-13T10:06:15;43.20;;;20.20;;
69754;SDS011;57023;52.218;5.158;2022-12-13T10:08:52;42.38;;;19.67;;
69754;SDS011;57023;52.218;5.158;2022-12-13T10:11:19;41.90;;;20.80;;
69754;SDS011;57023;52.218;5.158;2022-12-13T10:19:16;43.85;;;20.00;;
69754;SDS011;57023;52.218;5.158;2022-12-13T10:21:43;37.28;;;19.55;;
69754;SDS011;57023;52.218;5.158;2022-12-13T10:24:22;38.58;;;18.95;;
69754;SDS011;57023;52.218;5.158;2022-12-13T10:26:51;40.35;;;20.77;;
69754;SDS011;57023;52.218;5.158;2022-12-13T10:29:18;40.73;;;19.63;;
69754;SDS011;57023;52.218;5.158;2022-12-13T10:31:44;38.78;;;20.08;;
69754;SDS011;57023;52.218;5.158;2022-12-13T10:36:41;38.10;;;18.42;;
69754;SDS011;57023;52.218;5.158;2022-12-13T10:39:13;40.22;;;20.10;;
69754;SDS011;57023;52.218;5.158;2022-12-13T10:41:41;42.17;;;20.52;;
69754;SDS011;57023;52.218;5.158;2022-12-13T10:44:08;37.50;;;19.27;;
69754;SDS011;57023;52.218;5.158;2022-12-13T10:46:36;43.25;;;21.08;;
69754;SDS011;57023;52.218;5.158;2022-12-13T10:51:35;39.20;;;19.13;;
69754;SDS011;57023;52.218;5.158;2022-12-13T10:54:03;38.05;;;19.10;;
69754;SDS011;57023;52.218;5.158;2022-12-13T10:56:44;40.83;;;20.25;;
69754;SDS011;57023;52.218;5.158;2022-12-13T10:59:22;39.67;;;19.13;;
69754;SDS011;57023;52.218;5.158;2022-12-13T11:01:49;37.58;;;19.85;;
69754;SDS011;57023;52.218;5.158;2022-12-13T11:06:47;38.53;;;19.35;;
69754;SDS011;57023;52.218;5.158;2022-12-13T11:09:16;42.63;;;20.38;;
69754;SDS011;57023;52.218;5.158;2022-12-13T11:11:52;42.65;;;20.58;;
69754;SDS011;57023;52.218;5.158;2022-12-13T11:14:19;40.72;;;19.48;;
69754;SDS011;57023;52.218;5.158;2022-12-13T11:16:51;39.70;;;19.15;;
69754;SDS011;57023;52.218;5.158;2022-12-13T11:19:19;37.85;;;18.20;;
69754;SDS011;57023;52.218;5.158;2022-12-13T11:21:48;35.22;;;19.02;;
69754;SDS011;57023;52.218;5.158;2022-12-13T11:24:25;39.03;;;19.92;;
69754;SDS011;57023;52.218;5.158;2022-12-13T11:29:55;37.60;;;19.20;;
69754;SDS011;57023;52.218;5.158;2022-12-13T11:38:23;37.67;;;18.40;;
69754;SDS011;57023;52.218;5.158;2022-12-13T11:40:59;42.15;;;19.80;;
69754;SDS011;57023;52.218;5.158;2022-12-13T11:43:38;42.42;;;19.77;;
69754;SDS011;57023;52.218;5.158;2022-12-13T11:46:18;42.03;;;18.98;;
69754;SDS011;57023;52.218;5.158;2022-12-13T11:48:50;37.80;;;19.50;;
69754;SDS011;57023;52.218;5.158;2022-12-13T11:51:24;41.10;;;19.98;;
69754;SDS011;57023;52.218;5.158;2022-12-13T11:53:53;42.88;;;20.52;;
69754;SDS011;57023;52.218;5.158;2022-12-13T11:56:40;37.90;;;19.60;;
69754;SDS011;57023;52.218;5.158;2022-12-13T12:04:50;41.05;;;20.02;;
69754;SDS011;57023;52.218;5.158;2022-12-13T12:12:47;36.97;;;19.10;;
69754;SDS011;57023;52.218;5.158;2022-12-13T12:17:45;35.88;;;18.95;;
69754;SDS011;57023;52.218;5.158;2022-12-13T12:20:12;39.03;;;19.55;;
69754;SDS011;57023;52.218;5.158;2022-12-13T12:22:40;38.20;;;19.45;;
69754;SDS011;57023;52.218;5.158;2022-12-13T12:33:11;39.35;;;19.55;;
69754;SDS011;57023;52.218;5.158;2022-12-13T12:41:12;40.42;;;21.42;;
69754;SDS011;57023;52.218;5.158;2022-12-13T12:43:43;41.45;;;19.65;;
69754;SDS011;57023;52.218;5.158;2022-12-13T12:46:16;43.28;;;21.30;;
69754;SDS011;57023;52.218;5.158;2022-12-13T12:49:15;42.97;;;20.50;;
69754;SDS011;57023;52.218;5.158;2022-12-13T13:00:23;44.53;;;21.65;;
69754;SDS011;57023;52.218;5.158;2022-12-13T13:02:57;44.53;;;21.30;;
69754;SDS011;57023;52.218;5.158;2022-12-13T13:05:39;49.55;;;21.95;;
69754;SDS011;57023;52.218;5.158;2022-12-13T13:11:04;45.50;;;20.92;;
69754;SDS011;57023;52.218;5.158;2022-12-13T13:13:31;40.00;;;19.05;;
69754;SDS011;57023;52.218;5.158;2022-12-13T13:16:02;42.90;;;20.15;;
69754;SDS011;57023;52.218;5.158;2022-12-13T13:18:41;50.80;;;25.33;;
69754;SDS011;57023;52.218;5.158;2022-12-13T13:21:30;42.10;;;22.27;;
69754;SDS011;57023;52.218;5.158;2022-12-13T13:26:35;43.85;;;21.17;;
69754;SDS011;57023;52.218;5.158;2022-12-13T13:34:21;42.33;;;21.83;;
69754;SDS011;57023;52.218;5.158;2022-12-13T13:36:54;42.97;;;21.73;;
69754;SDS011;57023;52.218;5.158;2022-12-13T13:39:35;40.47;;;21.88;;
69754;SDS011;57023;52.218;5.158;2022-12-13T13:42:15;44.83;;;22.52;;
69754;SDS011;57023;52.218;5.158;2022-12-13T13:47:11;45.55;;;21.58;;
69754;SDS011;57023;52.218;5.158;2022-12-13T13:52:26;55.20;;;26.38;;
69754;SDS011;57023;52.218;5.158;2022-12-13T13:55:05;60.08;;;27.17;;
69754;SDS011;57023;52.218;5.158;2022-12-13T13:58:15;54.50;;;24.08;;
69754;SDS011;57023;52.218;5.158;2022-12-13T14:06:47;51.92;;;25.38;;
69754;SDS011;57023;52.218;5.158;2022-12-13T14:24:21;48.58;;;24.23;;
69754;SDS011;57023;52.218;5.158;2022-12-13T14:29:39;48.42;;;21.60;;
69754;SDS011;57023;52.218;5.158;2022-12-13T14:32:18;50.78;;;25.40;;
69754;SDS011;57023;52.218;5.158;2022-12-13T14:34:47;55.95;;;27.60;;
69754;SDS011;57023;52.218;5.158;2022-12-13T14:37:20;52.55;;;24.10;;
69754;SDS011;57023;52.218;5.158;2022-12-13T14:40:00;48.53;;;24.95;;
69754;SDS011;57023;52.218;5.158;2022-12-13T14:42:28;53.72;;;25.05;;
69754;SDS011;57023;52.218;5.158;2022-12-13T14:48:02;51.78;;;24.20;;
69754;SDS011;57023;52.218;5.158;2022-12-13T14:50:30;58.38;;;27.60;;
69754;SDS011;57023;52.218;5.158;2022-12-13T14:52:57;49.63;;;25.02;;
69754;SDS011;57023;52.218;5.158;2022-12-13T14:57:56;57.47;;;27.48;;
69754;SDS011;57023;52.218;5.158;2022-12-13T15:00:24;66.80;;;30.08;;
69754;SDS011;57023;52.218;5.158;2022-12-13T15:02:55;60.88;;;29.02;;
69754;SDS011;57023;52.218;5.158;2022-12-13T15:05:29;56.28;;;28.35;;
69754;SDS011;57023;52.218;5.158;2022-12-13T15:07:59;61.58;;;29.35;;
69754;SDS011;57023;52.218;5.158;2022-12-13T15:10:33;67.05;;;28.85;;
69754;SDS011;57023;52.218;5.158;2022-12-13T15:13:02;56.88;;;26.95;;
69754;SDS011;57023;52.218;5.158;2022-12-13T15:15:29;56.00;;;26.63;;
69754;SDS011;57023;52.218;5.158;2022-12-13T15:20:36;53.47;;;26.35;;
69754;SDS011;57023;52.218;5.158;2022-12-13T15:23:05;59.58;;;29.13;;
69754;SDS011;57023;52.218;5.158;2022-12-13T15:25:35;55.58;;;26.00;;
69754;SDS011;57023;52.218;5.158;2022-12-13T15:28:02;58.53;;;26.10;;
69754;SDS011;57023;52.218;5.158;2022-12-13T15:30:28;67.27;;;27.53;;
69754;SDS011;57023;52.218;5.158;2022-12-13T15:35:44;57.75;;;27.65;;
69754;SDS011;57023;52.218;5.158;2022-12-13T15:38:11;55.00;;;25.42;;
69754;SDS011;57023;52.218;5.158;2022-12-13T15:40:46;52.58;;;25.17;;
69754;SDS011;57023;52.218;5.158;2022-12-13T15:43:13;61.08;;;25.50;;
69754;SDS011;57023;52.218;5.158;2022-12-13T15:45:44;53.13;;;23.67;;
69754;SDS011;57023;52.218;5.158;2022-12-13T15:51:13;53.60;;;24.92;;
69754;SDS011;57023;52.218;5.158;2022-12-13T15:56:34;51.67;;;24.67;;
69754;SDS011;57023;52.218;5.158;2022-12-13T15:59:26;60.85;;;27.23;;
69754;SDS011;57023;52.218;5.158;2022-12-13T16:01:56;134.45;;;49.85;;
69754;SDS011;57023;52.218;5.158;2022-12-13T16:04:22;55.55;;;25.20;;
69754;SDS011;57023;52.218;5.158;2022-12-13T16:06:48;49.38;;;24.20;;
69754;SDS011;57023;52.218;5.158;2022-12-13T16:09:16;50.80;;;23.80;;
69754;SDS011;57023;52.218;5.158;2022-12-13T16:11:47;61.67;;;27.13;;
69754;SDS011;57023;52.218;5.158;2022-12-13T16:17:07;54.00;;;24.90;;
69754;SDS011;57023;52.218;5.158;2022-12-13T16:19:37;57.42;;;27.50;;
69754;SDS011;57023;52.218;5.158;2022-12-13T16:22:04;50.58;;;24.02;;
69754;SDS011;57023;52.218;5.158;2022-12-13T16:24:29;53.33;;;24.48;;
69754;SDS011;57023;52.218;5.158;2022-12-13T16:26:54;55.40;;;24.92;;
69754;SDS011;57023;52.218;5.158;2022-12-13T16:29:20;49.95;;;22.48;;
69754;SDS011;57023;52.218;5.158;2022-12-13T16:31:48;55.95;;;26.67;;
69754;SDS011;57023;52.218;5.158;2022-12-13T16:34:13;49.93;;;22.90;;
69754;SDS011;57023;52.218;5.158;2022-12-13T16:39:09;54.60;;;23.52;;
69754;SDS011;57023;52.218;5.158;2022-12-13T16:41:39;58.20;;;25.10;;
69754;SDS011;57023;52.218;5.158;2022-12-13T16:44:07;49.72;;;22.02;;
69754;SDS011;57023;52.218;5.158;2022-12-13T16:46:33;53.13;;;22.35;;
69754;SDS011;57023;52.218;5.158;2022-12-13T16:49:00;48.22;;;22.65;;
69754;SDS011;57023;52.218;5.158;2022-12-13T16:51:26;48.58;;;22.38;;
69754;SDS011;57023;52.218;5.158;2022-12-13T16:53:51;51.30;;;22.27;;
69754;SDS011;57023;52.218;5.158;2022-12-13T16:56:22;58.15;;;26.45;;
69754;SDS011;57023;52.218;5.158;2022-12-13T16:58:48;88.70;;;38.22;;